| Record Date MM/DD/YYYY | Record Julian Date NNN day of the year | Air Temperature Max (Degrees Fahrenheit F) | Time Max Air Temperature HH:MM:SS This is the time of max air temperature standard time. | Air Temperature Min (Degrees Fahrenheit F) | Time Min Air Temperature HH:MM:SS This is the time of min air temperature standard time. | Air Temperature Observed (Degrees Fahrenheit F) This is an instantaneous reading for air temperature at 7:00:00 standard time. | Relative Humidity Max (Percent) | Time Max Relative Humidity HH:MM:SS This is the time of max relative humidity standard time. | Relative Humidity Min (Percent) | Time Min Relative Humidity HH:MM:SS This is the time of min relative humidity standard time. | Relative Humidity Observed (Percent) This is an instantaneous reading at 7:00:00 standard time. | Precipitation (Inches n.nn) total rain fall that occurred for the day. | Pan Evaporation (Inches n.nn) total evaporation that occured for the day. | Wind Run (Miles) Wind travel for the day. | Wind Speed (Miles Per Hour) Resultant / Average speed for the day. | Wind Direction (Degrees) Resultant Direction for the day | Solar Radiation (Langley's) that occurred for the day. | Soil Temperature Max at 2 inch depth (Degrees Fahrenheit F) that occurred during the day. | Time Max Soil temperature at 2 inches HH:MM:SS This is the time of max 2 inch soil temperature standard time. | Soil Temperature Min at 2 inch depth (Degrees Fahrenheit F) that occurred during the day. | Time Min Soil temperature at 2 inches HH:MM:SS This is the time of min 2 inch soil temperature standard time. | Soil Temperature Observed at 2 inch depth (Degrees Fahrenheit F) This is an instantaneous reading 2 inch soil temperature at 7:00:00 standard time. | Soil Temperature Max at 4 inch depth (Degrees Fahrenheit F) that occurred during the day. | Time Max Soil temperature at 4 inches HH:MM:SS This is the time of max 4 inch soil temperature standard time. | Soil Temperature Min at 4 inch depth (Degrees Fahrenheit F) that occurred during the day. | Time Min Soil temperature at 4 inches HH:MM:SS This is the time of min 4 inch soil temperature standard time. | Soil Temperature Observed at 4 inch depth (Degrees Fahrenheit F) This is an instantaneous reading 4 inch soil temperature at 7:00:00 standard time. | DD50 Degree Days 50 Fahrenheit. | Adjusted DD50 Degree Days 50 Fahrenheit adjusted for latitude. | DD60 Degree Days 60 Fahrenheit. |
|---|---|---|---|---|---|---|---|---|---|---|---|---|---|---|---|---|---|---|---|---|---|---|---|---|---|---|---|---|---|---|
| 08/07/2026 | 219 | 96 | 12:20:03 | 72 | 5:16:00 | 78 | 98 | 5:30:02 | 43 | 15:45:01 | 91 | 0 | 77 | 3.2 | 192 | 517 | 102 | 19:42:05 | 87 | 87 | 100 | 16:45:03 | 88 | 7:43:00 | 88 | 34 | 26.98 | 24 | ||
| 08/08/2026 | 220 | 97 | 16:30:03 | 72 | 5:30:01 | 80 | 95 | 5:39:02 | 39 | 16:31:03 | 83 | 0 | 50 | 2.1 | 217 | 506 | 104 | 19:56:03 | 87 | 87 | 101 | 16:33:00 | 88 | 7:26:05 | 88 | 34.5 | 26.95 | 24.5 | ||
| 08/09/2026 | 221 | 97 | 15:09:01 | 71 | 4:56:01 | 80 | 97 | 5:15:02 | 45 | 14:53:02 | 82 | 0 | 62 | 2.6 | 197 | 526 | 105 | 19:07:01 | 87 | 87 | 102 | 15:44:05 | 89 | 7:33:00 | 89 | 34 | 26.91 | 24 | ||
| 08/10/2026 | 222 | 98 | 15:22:01 | 74 | 5:22:01 | 82 | 94 | 5:28:03 | 46 | 14:37:00 | 82 | 0 | 59 | 2.4 | 189 | 467 | 104 | 19:51:02 | 88 | 88 | 101 | 15:58:00 | 89 | 7:27:04 | 89 | 36 | 26.88 | 26 | ||
| 08/11/2026 | 223 | 96 | 14:41:02 | 74 | 5:28:04 | 79 | 96 | 5:45:00 | 47 | 16:21:01 | 89 | 0 | 86 | 3.6 | 206 | 514 | 104 | 19:01:05 | 88 | 88 | 101 | 16:13:00 | 89 | 7:42:02 | 89 | 35 | 26.85 | 25 | ||
| 08/12/2026 | 224 | 99 | 13:27:01 | 77 | 5:35:01 | 82 | 90 | 5:36:01 | 36 | 14:08:05 | 82 | 0 | 88 | 3.7 | 210 | 550 | 106 | 19:17:03 | 88 | 89 | 103 | 16:20:01 | 90 | 7:06:03 | 90 | 38 | 26.81 | 28 | ||
| 08/13/2026 | 225 | 99 | 14:30:01 | 77 | 5:35:00 | 82 | 90 | 5:52:01 | 41 | 14:51:00 | 83 | 0 | 91 | 3.8 | 208 | 562 | 106 | 19:16:04 | 89 | 89 | 103 | 16:06:05 | 90 | 7:55:05 | 90 | 38 | 26.78 | 28 | ||
| 08/14/2026 | 226 | 100 | 16:01:05 | 76 | 5:41:01 | 81 | 90 | 5:48:04 | 32 | 16:58:00 | 83 | 0 | 92 | 3.8 | 211 | 559 | 107 | 19:06:04 | 89 | 89 | 104 | 16:16:05 | 90 | 8:08:00 | 91 | 38 | 26.74 | 28 | ||
| 08/15/2026 | 227 | 100 | 16:31:00 | 73 | 3:24:05 | 82 | 90 | 2:08:03 | 37 | 16:11:01 | 76 | 0 | 76 | 3.2 | 211 | 550 | 107 | 19:24:03 | 88 | 88 | 104 | 16:13:00 | 90 | 7:24:00 | 90 | 36.5 | 26.71 | 26.5 | ||
| 08/16/2026 | 228 | 104 | 15:24:04 | 76 | 5:18:04 | 88 | 89 | 5:03:05 | 33 | 14:18:03 | 68 | 0 | 52 | 2.2 | 222 | 547 | 108 | 19:14:03 | 90 | 90 | 105 | 16:25:01 | 91 | 7:55:02 | 91 | 40 | 26.68 | 30 | ||
| 08/17/2026 | 229 | 105 | 14:04:03 | 78 | 23:55:02 | 86 | 83 | 23:57:02 | 26 | 14:58:01 | 65 | 0.04 | 48 | 2.0 | 266 | 462 | 102 | 0:00:01 | 91 | 91 | 101 | 16:21:05 | 92 | 8:01:05 | 92 | 41.5 | 26.64 | 31.5 | ||
| 08/18/2026 | 230 | 104 | 15:46:02 | 74 | 3:02:02 | 79 | 93 | 3:07:01 | 31 | 16:05:00 | 86 | 0 | 42 | 1.8 | 322 | 426 | 102 | 19:56:02 | 88 | 88 | 100 | 17:02:05 | 90 | 7:51:04 | 90 | 39 | 26.61 | 29 | ||
| 08/19/2026 | 231 | 103 | 13:49:00 | 77 | 2:52:00 | 83 | 86 | 2:36:00 | 36 | 15:59:03 | 76 | 0 | 91 | 3.8 | 210 | 521 | 106 | 19:19:04 | 88 | 88 | 104 | 16:17:03 | 90 | 7:32:04 | 90 | 40 | 26.57 | 30 | ||
| 08/20/2026 | 232 | 104 | 14:09:00 | 76 | 23:56:03 | 84 | 91 | 23:34:03 | 38 | 14:42:01 | 76 | 0.12 | 61 | 2.5 | 219 | 468 | 108 | 18:06:04 | 90 | 90 | 105 | 15:24:00 | 91 | 7:21:02 | 91 | 40 | 26.54 | 30 | ||
| 08/21/2026 | 233 | 98 | 13:26:04 | 72 | 5:36:01 | 79 | 96 | 4:36:00 | 45 | 17:16:04 | 83 | 0 | 68 | 2.8 | 7 | 511 | 99 | 0:00:00 | 85 | 85 | 98 | 15:27:02 | 87 | 7:51:00 | 88 | 35 | 26.5 | 25 | ||
| 08/22/2026 | 234 | 104 | 15:52:01 | 68 | 5:26:01 | 79 | 98 | 5:44:04 | 33 | 15:52:03 | 86 | 0.16 | 61 | 2.5 | 8 | 518 | 104 | 19:33:02 | 84 | 84 | 101 | 16:20:01 | 86 | 7:35:00 | 86 | 36 | 26.47 | 26 | ||
| 08/23/2026 | 235 | 96 | 15:20:00 | 71 | 5:43:05 | 76 | 98 | 5:56:04 | 46 | 15:20:02 | 92 | 0.05 | 68 | 2.9 | 35 | 540 | 98 | 0:00:00 | 83 | 83 | 96 | 15:48:00 | 85 | 7:43:04 | 85 | 33.5 | 26.43 | 23.5 | ||
| 08/24/2026 | 236 | 81 | 16:14:04 | 72 | 11:22:02 | 72 | 99 | 11:48:03 | 81 | 3:26:00 | 95 | 0.48 | 49 | 2.0 | 147 | 115 | 86 | 0:00:00 | 80 | 82 | 88 | 0:00:00 | 82 | 23:59:05 | 85 | 26.5 | 26.4 | 16.5 | ||
| 08/25/2026 | 237 | 96 | 15:28:03 | 71 | 2:28:05 | 74 | 100 | 5:49:04 | 45 | 15:33:05 | 100 | 0.01 | 58 | 2.4 | 195 | 372 | 92 | 20:06:04 | 79 | 79 | 91 | 16:23:05 | 80 | 7:00:02 | 80 | 33.5 | 26.36 | 23.5 | ||
| 08/26/2026 | 238 | 100 | 15:14:04 | 71 | 22:10:04 | 78 | 96 | 23:37:04 | 37 | 14:44:04 | 90 | 0.15 | 64 | 2.7 | 231 | 489 | 96 | 19:30:03 | 80 | 80 | 94 | 16:22:05 | 81 | 6:41:02 | 81 | 35.5 | 26.33 | 25.5 | ||
| 08/27/2026 | 239 | 93 | 15:41:00 | 70 | 5:24:05 | 73 | 98 | 6:03:02 | 46 | 15:56:04 | 97 | 0 | 55 | 2.3 | 345 | 471 | 94 | 18:39:01 | 79 | 80 | 92 | 15:41:04 | 81 | 7:11:04 | 81 | 31.5 | 26.29 | 21.5 | ||
| 08/28/2026 | 240 | 95 | 14:23:03 | 71 | 23:41:02 | 74 | 98 | 4:17:00 | 39 | 16:46:04 | 94 | 0 | 70 | 2.9 | 19 | 437 | 92 | 18:32:03 | 80 | 80 | 91 | 15:01:01 | 81 | 7:08:04 | 82 | 33 | 26.26 | 23 | ||
| 08/29/2026 | 241 | 96 | 14:15:01 | 64 | 4:51:04 | 73 | 95 | 5:07:00 | 32 | 15:32:00 | 80 | 0 | 48 | 0.2 | 11 | 517 | 95 | 19:36:05 | 76 | 76 | 94 | 16:30:04 | 79 | 7:31:04 | 79 | 30 | 26.22 | 20 | ||
| 08/30/2026 | 242 | 97 | 15:16:01 | 67 | 4:50:02 | 76 | 92 | 4:44:01 | 33 | 11:22:05 | 73 | 0 | 58 | 2.4 | 155 | 491 | 97 | 19:22:00 | 78 | 78 | 96 | 15:57:03 | 80 | 7:28:04 | 80 | 32 | 26.19 | 22 | ||
| 08/31/2026 | 243 | 100 | 16:06:04 | 72 | 5:30:00 | 81 | 95 | 5:40:04 | 37 | 12:58:02 | 81 | 0 | 56 | 2.3 | 152 | 525 | 101 | 19:58:01 | 82 | 82 | 99 | 16:37:05 | 84 | 7:37:04 | 84 | 36 | 26.15 | 26 | ||
| 09/01/2026 | 244 | 100 | 13:27:03 | 72 | 5:05:05 | 83 | 94 | 5:12:05 | 39 | 13:27:03 | 78 | 0 | 53 | 2.2 | 152 | 460 | 102 | 18:30:03 | 84 | 84 | 99 | 15:20:00 | 86 | 7:26:00 | 86 | 36 | 26.12 | 26 | ||
| 09/02/2026 | 245 | 100 | 14:18:03 | 72 | 4:41:01 | 80 | 97 | 5:53:01 | 42 | 14:37:05 | 86 | 0.07 | 53 | 2.2 | 170 | 490 | 103 | 18:21:02 | 84 | 85 | 101 | 15:52:02 | 86 | 7:38:01 | 86 | 36 | 26.08 | 26 | ||
| 09/03/2026 | 246 | 101 | 14:25:01 | 73 | 4:51:00 | 82 | 98 | 5:16:03 | 39 | 14:21:03 | 86 | 0.01 | 47 | 1.9 | 239 | 461 | 100 | 18:31:00 | 83 | 83 | 97 | 15:17:02 | 85 | 7:22:01 | 85 | 37 | 26.04 | 27 | ||
| 09/04/2026 | 247 | 100 | 13:30:04 | 72 | 5:52:00 | 76 | 98 | 6:04:00 | 42 | 13:31:01 | 97 | 0 | 57 | 2.4 | 190 | 370 | 97 | 18:53:03 | 83 | 83 | 95 | 15:09:01 | 84 | 7:10:01 | 84 | 36 | 26.01 | 26 | ||
| 09/05/2026 | 248 | 101 | 15:22:01 | 72 | 5:42:03 | 78 | 98 | 5:58:00 | 37 | 16:19:00 | 90 | 0 | 65 | 2.7 | 163 | 470 | 101 | 19:04:00 | 84 | 84 | 99 | 16:17:03 | 85 | 7:30:01 | 85 | 36.5 | 26 | 26.5 | ||
| Average | 98.67 | 72.57 | 79.33 | 94.4 | 40.1 | 84.33 | 0.04 | 63.5 | 480.4 | 100.93 | 84.73 | 84.9 | 98.83 | 86.3 | 86.5 | 35.62 | 26.48 | 25.62 | ||||||||||||
| Total | 1.09 | 1068.5 | 794.5 | 768.5 |